sensor_id;sensor_type;location;lat;lon;timestamp;P1;durP1;ratioP1;P2;durP2;ratioP2
11228;SDS011;5671;47.936;8.716;2023-09-07T00:00:37;4.40;;;3.17;;
11228;SDS011;5671;47.936;8.716;2023-09-07T00:03:05;3.67;;;3.37;;
11228;SDS011;5671;47.936;8.716;2023-09-07T00:05:35;3.47;;;3.17;;
11228;SDS011;5671;47.936;8.716;2023-09-07T00:08:03;3.53;;;3.23;;
11228;SDS011;5671;47.936;8.716;2023-09-07T00:10:31;3.80;;;3.20;;
11228;SDS011;5671;47.936;8.716;2023-09-07T00:13:00;2.83;;;2.63;;
11228;SDS011;5671;47.936;8.716;2023-09-07T00:15:27;3.37;;;3.10;;
11228;SDS011;5671;47.936;8.716;2023-09-07T00:18:01;3.33;;;3.03;;
11228;SDS011;5671;47.936;8.716;2023-09-07T00:20:28;3.00;;;2.70;;
11228;SDS011;5671;47.936;8.716;2023-09-07T00:22:55;6.30;;;2.93;;
11228;SDS011;5671;47.936;8.716;2023-09-07T00:25:23;6.37;;;3.40;;
11228;SDS011;5671;47.936;8.716;2023-09-07T00:27:50;3.30;;;3.03;;
11228;SDS011;5671;47.936;8.716;2023-09-07T00:30:17;5.47;;;3.93;;
11228;SDS011;5671;47.936;8.716;2023-09-07T00:32:43;4.40;;;3.37;;
11228;SDS011;5671;47.936;8.716;2023-09-07T00:35:10;3.87;;;3.57;;
11228;SDS011;5671;47.936;8.716;2023-09-07T00:37:37;3.63;;;3.33;;
11228;SDS011;5671;47.936;8.716;2023-09-07T00:40:05;4.00;;;3.60;;
11228;SDS011;5671;47.936;8.716;2023-09-07T00:42:35;3.60;;;3.30;;
11228;SDS011;5671;47.936;8.716;2023-09-07T00:45:02;5.90;;;3.93;;
11228;SDS011;5671;47.936;8.716;2023-09-07T00:47:30;4.50;;;3.83;;
11228;SDS011;5671;47.936;8.716;2023-09-07T00:49:59;3.83;;;3.50;;
11228;SDS011;5671;47.936;8.716;2023-09-07T00:52:26;4.63;;;3.60;;
11228;SDS011;5671;47.936;8.716;2023-09-07T00:54:53;3.97;;;3.63;;
11228;SDS011;5671;47.936;8.716;2023-09-07T00:57:21;3.67;;;3.37;;
11228;SDS011;5671;47.936;8.716;2023-09-07T00:59:49;4.10;;;3.40;;
11228;SDS011;5671;47.936;8.716;2023-09-07T01:02:16;4.27;;;3.30;;
11228;SDS011;5671;47.936;8.716;2023-09-07T01:04:43;4.17;;;3.53;;
11228;SDS011;5671;47.936;8.716;2023-09-07T01:07:11;3.60;;;3.20;;
11228;SDS011;5671;47.936;8.716;2023-09-07T01:09:43;3.60;;;3.30;;
11228;SDS011;5671;47.936;8.716;2023-09-07T01:12:16;3.33;;;3.00;;
11228;SDS011;5671;47.936;8.716;2023-09-07T01:14:43;5.17;;;3.33;;
11228;SDS011;5671;47.936;8.716;2023-09-07T01:17:12;7.03;;;3.20;;
11228;SDS011;5671;47.936;8.716;2023-09-07T01:19:39;3.70;;;3.40;;
11228;SDS011;5671;47.936;8.716;2023-09-07T01:22:08;4.23;;;2.90;;
11228;SDS011;5671;47.936;8.716;2023-09-07T01:24:35;3.50;;;3.17;;
11228;SDS011;5671;47.936;8.716;2023-09-07T01:27:04;4.50;;;2.80;;
11228;SDS011;5671;47.936;8.716;2023-09-07T01:29:31;3.73;;;3.00;;
11228;SDS011;5671;47.936;8.716;2023-09-07T01:31:58;3.43;;;3.13;;
11228;SDS011;5671;47.936;8.716;2023-09-07T01:34:26;5.60;;;2.83;;
11228;SDS011;5671;47.936;8.716;2023-09-07T01:36:52;3.83;;;3.00;;
11228;SDS011;5671;47.936;8.716;2023-09-07T01:39:21;3.43;;;3.13;;
11228;SDS011;5671;47.936;8.716;2023-09-07T01:41:48;3.13;;;2.93;;
11228;SDS011;5671;47.936;8.716;2023-09-07T01:44:15;3.93;;;2.60;;
11228;SDS011;5671;47.936;8.716;2023-09-07T01:46:42;3.17;;;2.67;;
11228;SDS011;5671;47.936;8.716;2023-09-07T01:49:09;3.30;;;3.00;;
11228;SDS011;5671;47.936;8.716;2023-09-07T01:51:36;3.90;;;3.20;;
11228;SDS011;5671;47.936;8.716;2023-09-07T01:54:03;3.97;;;2.70;;
11228;SDS011;5671;47.936;8.716;2023-09-07T01:56:31;5.43;;;3.10;;
11228;SDS011;5671;47.936;8.716;2023-09-07T01:58:58;5.80;;;3.33;;
11228;SDS011;5671;47.936;8.716;2023-09-07T02:01:25;3.53;;;2.90;;
11228;SDS011;5671;47.936;8.716;2023-09-07T02:03:54;3.50;;;3.20;;
11228;SDS011;5671;47.936;8.716;2023-09-07T02:06:21;3.30;;;3.00;;
11228;SDS011;5671;47.936;8.716;2023-09-07T02:08:48;3.63;;;3.33;;
11228;SDS011;5671;47.936;8.716;2023-09-07T02:11:15;3.43;;;2.90;;
11228;SDS011;5671;47.936;8.716;2023-09-07T02:13:43;5.93;;;2.80;;
11228;SDS011;5671;47.936;8.716;2023-09-07T02:16:12;3.67;;;3.37;;
11228;SDS011;5671;47.936;8.716;2023-09-07T02:18:39;4.77;;;3.00;;
11228;SDS011;5671;47.936;8.716;2023-09-07T02:21:08;3.10;;;2.90;;
11228;SDS011;5671;47.936;8.716;2023-09-07T02:23:36;4.97;;;3.73;;
11228;SDS011;5671;47.936;8.716;2023-09-07T02:26:03;4.53;;;2.80;;
11228;SDS011;5671;47.936;8.716;2023-09-07T02:28:30;4.17;;;3.00;;
11228;SDS011;5671;47.936;8.716;2023-09-07T02:31:03;4.30;;;3.03;;
11228;SDS011;5671;47.936;8.716;2023-09-07T02:33:31;3.37;;;2.90;;
11228;SDS011;5671;47.936;8.716;2023-09-07T02:35:58;4.50;;;2.97;;
11228;SDS011;5671;47.936;8.716;2023-09-07T02:38:24;4.83;;;3.00;;
11228;SDS011;5671;47.936;8.716;2023-09-07T02:40:51;2.90;;;2.60;;
11228;SDS011;5671;47.936;8.716;2023-09-07T02:43:19;2.60;;;2.40;;
11228;SDS011;5671;47.936;8.716;2023-09-07T02:45:48;2.70;;;2.50;;
11228;SDS011;5671;47.936;8.716;2023-09-07T02:48:16;2.87;;;2.40;;
11228;SDS011;5671;47.936;8.716;2023-09-07T02:50:43;2.57;;;2.37;;
11228;SDS011;5671;47.936;8.716;2023-09-07T02:53:13;6.17;;;2.60;;
11228;SDS011;5671;47.936;8.716;2023-09-07T02:55:40;2.43;;;2.10;;
11228;SDS011;5671;47.936;8.716;2023-09-07T02:58:07;2.90;;;2.33;;
11228;SDS011;5671;47.936;8.716;2023-09-07T03:00:34;5.00;;;2.60;;
11228;SDS011;5671;47.936;8.716;2023-09-07T03:03:00;4.50;;;2.47;;
11228;SDS011;5671;47.936;8.716;2023-09-07T03:05:29;2.87;;;2.63;;
11228;SDS011;5671;47.936;8.716;2023-09-07T03:07:56;4.80;;;2.77;;
11228;SDS011;5671;47.936;8.716;2023-09-07T03:10:22;3.73;;;2.73;;
11228;SDS011;5671;47.936;8.716;2023-09-07T03:12:52;2.60;;;2.40;;
11228;SDS011;5671;47.936;8.716;2023-09-07T03:15:19;3.73;;;2.87;;
11228;SDS011;5671;47.936;8.716;2023-09-07T03:17:46;2.00;;;1.90;;
11228;SDS011;5671;47.936;8.716;2023-09-07T03:20:13;2.40;;;2.20;;
11228;SDS011;5671;47.936;8.716;2023-09-07T03:22:42;3.53;;;2.60;;
11228;SDS011;5671;47.936;8.716;2023-09-07T03:25:13;2.30;;;2.10;;
11228;SDS011;5671;47.936;8.716;2023-09-07T03:27:40;2.80;;;2.50;;
11228;SDS011;5671;47.936;8.716;2023-09-07T03:30:07;2.40;;;2.20;;
11228;SDS011;5671;47.936;8.716;2023-09-07T03:32:35;4.03;;;2.40;;
11228;SDS011;5671;47.936;8.716;2023-09-07T03:35:02;3.10;;;2.50;;
11228;SDS011;5671;47.936;8.716;2023-09-07T03:37:32;2.70;;;2.50;;
11228;SDS011;5671;47.936;8.716;2023-09-07T03:40:00;2.60;;;2.40;;
11228;SDS011;5671;47.936;8.716;2023-09-07T03:42:27;5.73;;;2.37;;
11228;SDS011;5671;47.936;8.716;2023-09-07T03:44:53;2.47;;;2.30;;
11228;SDS011;5671;47.936;8.716;2023-09-07T03:47:20;2.70;;;2.50;;
11228;SDS011;5671;47.936;8.716;2023-09-07T03:49:47;3.30;;;3.00;;
11228;SDS011;5671;47.936;8.716;2023-09-07T03:52:14;2.70;;;2.50;;
11228;SDS011;5671;47.936;8.716;2023-09-07T03:54:40;2.87;;;2.40;;
11228;SDS011;5671;47.936;8.716;2023-09-07T03:57:09;3.47;;;2.53;;
11228;SDS011;5671;47.936;8.716;2023-09-07T03:59:35;4.20;;;2.80;;
11228;SDS011;5671;47.936;8.716;2023-09-07T04:02:03;2.53;;;2.30;;
11228;SDS011;5671;47.936;8.716;2023-09-07T04:04:29;3.30;;;3.00;;
11228;SDS011;5671;47.936;8.716;2023-09-07T04:06:56;2.90;;;2.30;;
11228;SDS011;5671;47.936;8.716;2023-09-07T04:09:23;3.13;;;2.87;;
11228;SDS011;5671;47.936;8.716;2023-09-07T04:11:53;7.07;;;2.90;;
11228;SDS011;5671;47.936;8.716;2023-09-07T04:14:21;5.07;;;2.97;;
11228;SDS011;5671;47.936;8.716;2023-09-07T04:16:48;5.50;;;3.20;;
11228;SDS011;5671;47.936;8.716;2023-09-07T04:19:16;3.60;;;2.53;;
11228;SDS011;5671;47.936;8.716;2023-09-07T04:21:43;2.00;;;1.80;;
11228;SDS011;5671;47.936;8.716;2023-09-07T04:24:09;2.50;;;2.20;;
11228;SDS011;5671;47.936;8.716;2023-09-07T04:26:36;2.17;;;2.07;;
11228;SDS011;5671;47.936;8.716;2023-09-07T04:29:03;2.40;;;2.20;;
11228;SDS011;5671;47.936;8.716;2023-09-07T04:31:34;2.17;;;2.07;;
11228;SDS011;5671;47.936;8.716;2023-09-07T04:34:01;1.87;;;1.77;;
11228;SDS011;5671;47.936;8.716;2023-09-07T04:36:28;3.77;;;2.20;;
11228;SDS011;5671;47.936;8.716;2023-09-07T04:38:55;4.00;;;1.97;;
11228;SDS011;5671;47.936;8.716;2023-09-07T04:41:22;3.10;;;2.27;;
11228;SDS011;5671;47.936;8.716;2023-09-07T04:43:49;2.70;;;2.50;;
11228;SDS011;5671;47.936;8.716;2023-09-07T04:46:16;3.20;;;2.80;;
11228;SDS011;5671;47.936;8.716;2023-09-07T04:48:44;3.03;;;2.73;;
11228;SDS011;5671;47.936;8.716;2023-09-07T04:51:11;2.90;;;2.60;;
11228;SDS011;5671;47.936;8.716;2023-09-07T04:53:41;2.70;;;2.43;;
11228;SDS011;5671;47.936;8.716;2023-09-07T04:56:08;4.27;;;2.67;;
11228;SDS011;5671;47.936;8.716;2023-09-07T04:58:35;3.57;;;3.20;;
11228;SDS011;5671;47.936;8.716;2023-09-07T05:01:02;5.20;;;2.93;;
11228;SDS011;5671;47.936;8.716;2023-09-07T05:03:29;3.27;;;2.90;;
11228;SDS011;5671;47.936;8.716;2023-09-07T05:05:57;4.20;;;2.90;;
11228;SDS011;5671;47.936;8.716;2023-09-07T05:08:26;4.20;;;2.90;;
11228;SDS011;5671;47.936;8.716;2023-09-07T05:10:54;2.87;;;2.67;;
11228;SDS011;5671;47.936;8.716;2023-09-07T05:13:22;4.03;;;3.30;;
11228;SDS011;5671;47.936;8.716;2023-09-07T05:15:49;2.83;;;2.63;;
11228;SDS011;5671;47.936;8.716;2023-09-07T05:18:17;4.00;;;2.53;;
11228;SDS011;5671;47.936;8.716;2023-09-07T05:20:44;3.57;;;3.10;;
11228;SDS011;5671;47.936;8.716;2023-09-07T05:23:14;3.40;;;3.10;;
11228;SDS011;5671;47.936;8.716;2023-09-07T05:25:43;4.23;;;3.20;;
11228;SDS011;5671;47.936;8.716;2023-09-07T05:28:11;3.20;;;3.00;;
11228;SDS011;5671;47.936;8.716;2023-09-07T05:30:39;3.10;;;2.73;;
11228;SDS011;5671;47.936;8.716;2023-09-07T05:33:05;3.40;;;3.10;;
11228;SDS011;5671;47.936;8.716;2023-09-07T05:35:33;3.27;;;2.80;;
11228;SDS011;5671;47.936;8.716;2023-09-07T05:38:00;3.17;;;2.87;;
11228;SDS011;5671;47.936;8.716;2023-09-07T05:40:28;3.37;;;3.07;;
11228;SDS011;5671;47.936;8.716;2023-09-07T05:42:55;4.27;;;2.50;;
11228;SDS011;5671;47.936;8.716;2023-09-07T05:45:22;3.67;;;2.87;;
11228;SDS011;5671;47.936;8.716;2023-09-07T05:47:48;4.07;;;3.00;;
11228;SDS011;5671;47.936;8.716;2023-09-07T05:50:15;3.23;;;2.87;;
11228;SDS011;5671;47.936;8.716;2023-09-07T05:52:42;5.63;;;3.23;;
11228;SDS011;5671;47.936;8.716;2023-09-07T05:55:09;7.70;;;3.33;;
11228;SDS011;5671;47.936;8.716;2023-09-07T05:57:37;5.53;;;3.30;;
11228;SDS011;5671;47.936;8.716;2023-09-07T06:00:05;3.63;;;3.30;;
11228;SDS011;5671;47.936;8.716;2023-09-07T06:02:32;6.87;;;3.50;;
11228;SDS011;5671;47.936;8.716;2023-09-07T06:04:59;4.40;;;3.50;;
11228;SDS011;5671;47.936;8.716;2023-09-07T06:07:25;5.63;;;3.47;;
11228;SDS011;5671;47.936;8.716;2023-09-07T06:09:52;8.17;;;3.30;;
11228;SDS011;5671;47.936;8.716;2023-09-07T06:12:19;4.77;;;3.23;;
11228;SDS011;5671;47.936;8.716;2023-09-07T06:14:47;4.27;;;3.57;;
11228;SDS011;5671;47.936;8.716;2023-09-07T06:17:14;4.90;;;3.63;;
11228;SDS011;5671;47.936;8.716;2023-09-07T06:19:41;7.30;;;3.57;;
11228;SDS011;5671;47.936;8.716;2023-09-07T06:22:07;5.27;;;3.43;;
11228;SDS011;5671;47.936;8.716;2023-09-07T06:24:34;5.23;;;3.60;;
11228;SDS011;5671;47.936;8.716;2023-09-07T06:27:01;6.07;;;3.67;;
11228;SDS011;5671;47.936;8.716;2023-09-07T06:29:28;6.77;;;4.20;;
11228;SDS011;5671;47.936;8.716;2023-09-07T06:31:56;4.07;;;3.67;;
11228;SDS011;5671;47.936;8.716;2023-09-07T06:34:23;3.67;;;3.30;;
11228;SDS011;5671;47.936;8.716;2023-09-07T06:36:51;4.13;;;3.73;;
11228;SDS011;5671;47.936;8.716;2023-09-07T06:39:18;6.17;;;3.93;;
11228;SDS011;5671;47.936;8.716;2023-09-07T06:41:45;4.90;;;4.40;;
11228;SDS011;5671;47.936;8.716;2023-09-07T06:44:12;7.30;;;4.40;;
11228;SDS011;5671;47.936;8.716;2023-09-07T06:46:40;9.30;;;5.17;;
11228;SDS011;5671;47.936;8.716;2023-09-07T06:49:08;5.33;;;4.83;;
11228;SDS011;5671;47.936;8.716;2023-09-07T06:51:35;5.90;;;4.90;;
11228;SDS011;5671;47.936;8.716;2023-09-07T06:54:02;6.80;;;5.37;;
11228;SDS011;5671;47.936;8.716;2023-09-07T06:56:29;5.70;;;5.03;;
11228;SDS011;5671;47.936;8.716;2023-09-07T06:58:58;5.77;;;5.03;;
11228;SDS011;5671;47.936;8.716;2023-09-07T07:01:25;6.43;;;5.27;;
11228;SDS011;5671;47.936;8.716;2023-09-07T07:03:52;7.20;;;5.10;;
11228;SDS011;5671;47.936;8.716;2023-09-07T07:06:20;7.50;;;4.90;;
11228;SDS011;5671;47.936;8.716;2023-09-07T07:08:47;7.50;;;4.70;;
11228;SDS011;5671;47.936;8.716;2023-09-07T07:11:14;5.97;;;5.43;;
11228;SDS011;5671;47.936;8.716;2023-09-07T07:13:41;6.67;;;5.13;;
11228;SDS011;5671;47.936;8.716;2023-09-07T07:16:07;5.77;;;4.53;;
11228;SDS011;5671;47.936;8.716;2023-09-07T07:18:34;5.57;;;4.97;;
11228;SDS011;5671;47.936;8.716;2023-09-07T07:21:01;5.33;;;4.40;;
11228;SDS011;5671;47.936;8.716;2023-09-07T07:23:29;5.17;;;4.60;;
11228;SDS011;5671;47.936;8.716;2023-09-07T07:25:56;4.67;;;4.27;;
11228;SDS011;5671;47.936;8.716;2023-09-07T07:28:22;5.23;;;4.63;;
11228;SDS011;5671;47.936;8.716;2023-09-07T07:30:49;7.00;;;4.07;;
11228;SDS011;5671;47.936;8.716;2023-09-07T07:33:17;4.87;;;3.70;;
11228;SDS011;5671;47.936;8.716;2023-09-07T07:35:44;4.13;;;3.73;;
11228;SDS011;5671;47.936;8.716;2023-09-07T07:38:11;3.90;;;3.57;;
11228;SDS011;5671;47.936;8.716;2023-09-07T07:40:40;4.20;;;3.80;;
11228;SDS011;5671;47.936;8.716;2023-09-07T07:43:07;4.30;;;3.90;;
11228;SDS011;5671;47.936;8.716;2023-09-07T07:45:35;4.40;;;3.60;;
11228;SDS011;5671;47.936;8.716;2023-09-07T07:48:03;7.70;;;4.10;;
11228;SDS011;5671;47.936;8.716;2023-09-07T07:50:35;5.37;;;3.27;;
11228;SDS011;5671;47.936;8.716;2023-09-07T07:53:04;5.23;;;3.67;;
11228;SDS011;5671;47.936;8.716;2023-09-07T07:55:33;3.80;;;3.50;;
11228;SDS011;5671;47.936;8.716;2023-09-07T07:58:05;5.13;;;4.00;;
11228;SDS011;5671;47.936;8.716;2023-09-07T08:00:32;7.20;;;4.30;;
11228;SDS011;5671;47.936;8.716;2023-09-07T08:03:00;4.50;;;4.10;;
11228;SDS011;5671;47.936;8.716;2023-09-07T08:05:28;5.23;;;3.83;;
11228;SDS011;5671;47.936;8.716;2023-09-07T08:07:55;5.90;;;4.70;;
11228;SDS011;5671;47.936;8.716;2023-09-07T08:10:22;4.97;;;4.23;;
11228;SDS011;5671;47.936;8.716;2023-09-07T08:12:51;11.70;;;5.23;;
11228;SDS011;5671;47.936;8.716;2023-09-07T08:15:21;4.33;;;3.93;;
11228;SDS011;5671;47.936;8.716;2023-09-07T08:17:50;5.20;;;3.93;;
11228;SDS011;5671;47.936;8.716;2023-09-07T08:20:17;5.83;;;3.87;;
11228;SDS011;5671;47.936;8.716;2023-09-07T08:22:44;4.97;;;4.43;;
11228;SDS011;5671;47.936;8.716;2023-09-07T08:25:11;4.60;;;4.20;;
11228;SDS011;5671;47.936;8.716;2023-09-07T08:27:38;4.70;;;4.13;;
11228;SDS011;5671;47.936;8.716;2023-09-07T08:30:08;4.77;;;3.90;;
11228;SDS011;5671;47.936;8.716;2023-09-07T08:32:39;4.77;;;3.90;;
11228;SDS011;5671;47.936;8.716;2023-09-07T08:35:06;10.10;;;4.40;;
11228;SDS011;5671;47.936;8.716;2023-09-07T08:37:34;5.77;;;3.80;;
11228;SDS011;5671;47.936;8.716;2023-09-07T08:40:01;6.50;;;4.70;;
11228;SDS011;5671;47.936;8.716;2023-09-07T08:42:30;5.23;;;4.07;;
11228;SDS011;5671;47.936;8.716;2023-09-07T08:44:56;6.63;;;3.90;;
11228;SDS011;5671;47.936;8.716;2023-09-07T08:47:31;7.40;;;3.97;;
11228;SDS011;5671;47.936;8.716;2023-09-07T08:50:01;5.17;;;3.90;;
11228;SDS011;5671;47.936;8.716;2023-09-07T08:52:28;4.40;;;4.00;;
11228;SDS011;5671;47.936;8.716;2023-09-07T08:54:56;10.37;;;4.00;;
11228;SDS011;5671;47.936;8.716;2023-09-07T08:57:25;5.17;;;3.37;;
11228;SDS011;5671;47.936;8.716;2023-09-07T08:59:53;8.37;;;3.73;;
11228;SDS011;5671;47.936;8.716;2023-09-07T09:02:20;4.43;;;3.53;;
11228;SDS011;5671;47.936;8.716;2023-09-07T09:04:47;5.20;;;3.33;;
11228;SDS011;5671;47.936;8.716;2023-09-07T09:07:16;5.57;;;3.60;;
11228;SDS011;5671;47.936;8.716;2023-09-07T09:09:43;4.73;;;3.27;;
11228;SDS011;5671;47.936;8.716;2023-09-07T09:12:11;4.47;;;3.77;;
11228;SDS011;5671;47.936;8.716;2023-09-07T09:14:39;6.17;;;3.70;;
11228;SDS011;5671;47.936;8.716;2023-09-07T09:17:10;4.43;;;3.53;;
11228;SDS011;5671;47.936;8.716;2023-09-07T09:19:38;3.40;;;3.13;;
11228;SDS011;5671;47.936;8.716;2023-09-07T09:22:06;6.07;;;3.77;;
11228;SDS011;5671;47.936;8.716;2023-09-07T09:24:34;3.90;;;3.50;;
11228;SDS011;5671;47.936;8.716;2023-09-07T09:27:02;4.20;;;3.50;;
11228;SDS011;5671;47.936;8.716;2023-09-07T09:29:29;5.37;;;3.90;;
11228;SDS011;5671;47.936;8.716;2023-09-07T09:31:59;6.73;;;3.80;;
11228;SDS011;5671;47.936;8.716;2023-09-07T09:34:30;5.60;;;3.80;;
11228;SDS011;5671;47.936;8.716;2023-09-07T09:36:58;4.80;;;3.20;;
11228;SDS011;5671;47.936;8.716;2023-09-07T09:39:26;4.13;;;3.23;;
11228;SDS011;5671;47.936;8.716;2023-09-07T09:41:54;5.43;;;3.40;;
11228;SDS011;5671;47.936;8.716;2023-09-07T09:44:21;3.53;;;3.23;;
11228;SDS011;5671;47.936;8.716;2023-09-07T09:46:50;6.10;;;4.13;;
11228;SDS011;5671;47.936;8.716;2023-09-07T09:49:19;10.33;;;3.50;;
11228;SDS011;5671;47.936;8.716;2023-09-07T09:51:47;6.93;;;3.30;;
11228;SDS011;5671;47.936;8.716;2023-09-07T09:54:16;4.40;;;3.20;;
11228;SDS011;5671;47.936;8.716;2023-09-07T09:56:43;6.97;;;3.33;;
11228;SDS011;5671;47.936;8.716;2023-09-07T09:59:12;6.87;;;3.20;;
11228;SDS011;5671;47.936;8.716;2023-09-07T10:01:40;3.67;;;3.37;;
11228;SDS011;5671;47.936;8.716;2023-09-07T10:04:10;4.70;;;3.43;;
11228;SDS011;5671;47.936;8.716;2023-09-07T10:06:38;4.90;;;3.30;;
11228;SDS011;5671;47.936;8.716;2023-09-07T10:09:18;5.07;;;3.80;;
11228;SDS011;5671;47.936;8.716;2023-09-07T10:11:50;4.30;;;3.20;;
11228;SDS011;5671;47.936;8.716;2023-09-07T10:14:23;7.87;;;3.70;;
11228;SDS011;5671;47.936;8.716;2023-09-07T10:16:50;6.37;;;3.40;;
11228;SDS011;5671;47.936;8.716;2023-09-07T10:19:22;3.27;;;2.97;;
11228;SDS011;5671;47.936;8.716;2023-09-07T10:21:52;5.10;;;3.57;;
11228;SDS011;5671;47.936;8.716;2023-09-07T10:24:23;4.40;;;3.47;;
11228;SDS011;5671;47.936;8.716;2023-09-07T10:26:58;6.80;;;3.33;;
11228;SDS011;5671;47.936;8.716;2023-09-07T10:29:40;4.37;;;3.43;;
11228;SDS011;5671;47.936;8.716;2023-09-07T10:32:07;6.60;;;3.10;;
11228;SDS011;5671;47.936;8.716;2023-09-07T10:34:35;4.60;;;3.10;;
11228;SDS011;5671;47.936;8.716;2023-09-07T10:37:04;4.97;;;3.90;;
11228;SDS011;5671;47.936;8.716;2023-09-07T10:39:32;4.10;;;3.77;;
11228;SDS011;5671;47.936;8.716;2023-09-07T10:41:59;10.30;;;3.60;;
11228;SDS011;5671;47.936;8.716;2023-09-07T10:44:26;3.93;;;3.50;;
11228;SDS011;5671;47.936;8.716;2023-09-07T10:46:57;4.60;;;3.40;;
11228;SDS011;5671;47.936;8.716;2023-09-07T10:49:24;3.70;;;3.40;;
11228;SDS011;5671;47.936;8.716;2023-09-07T10:51:53;4.33;;;3.43;;
11228;SDS011;5671;47.936;8.716;2023-09-07T10:54:22;4.90;;;3.70;;
11228;SDS011;5671;47.936;8.716;2023-09-07T10:56:50;3.30;;;3.07;;
11228;SDS011;5671;47.936;8.716;2023-09-07T10:59:17;3.90;;;3.33;;
11228;SDS011;5671;47.936;8.716;2023-09-07T11:01:44;3.50;;;3.10;;
11228;SDS011;5671;47.936;8.716;2023-09-07T11:04:13;3.80;;;3.27;;
11228;SDS011;5671;47.936;8.716;2023-09-07T11:06:42;7.00;;;3.20;;
11228;SDS011;5671;47.936;8.716;2023-09-07T11:09:09;3.20;;;2.90;;
11228;SDS011;5671;47.936;8.716;2023-09-07T11:11:36;4.70;;;3.40;;
11228;SDS011;5671;47.936;8.716;2023-09-07T11:14:03;4.53;;;3.63;;
11228;SDS011;5671;47.936;8.716;2023-09-07T11:16:31;4.03;;;3.63;;
11228;SDS011;5671;47.936;8.716;2023-09-07T11:19:02;4.97;;;3.53;;
11228;SDS011;5671;47.936;8.716;2023-09-07T11:21:32;6.57;;;3.10;;
11228;SDS011;5671;47.936;8.716;2023-09-07T11:24:01;5.33;;;3.10;;
11228;SDS011;5671;47.936;8.716;2023-09-07T11:26:40;3.30;;;3.00;;
11228;SDS011;5671;47.936;8.716;2023-09-07T11:29:08;4.70;;;3.37;;
11228;SDS011;5671;47.936;8.716;2023-09-07T11:31:34;3.50;;;3.20;;
11228;SDS011;5671;47.936;8.716;2023-09-07T11:34:00;4.23;;;3.27;;
11228;SDS011;5671;47.936;8.716;2023-09-07T11:36:27;6.27;;;3.50;;
11228;SDS011;5671;47.936;8.716;2023-09-07T11:38:55;3.53;;;3.23;;
11228;SDS011;5671;47.936;8.716;2023-09-07T11:41:22;7.00;;;3.37;;
11228;SDS011;5671;47.936;8.716;2023-09-07T11:43:49;3.60;;;3.00;;
11228;SDS011;5671;47.936;8.716;2023-09-07T11:46:16;3.77;;;3.03;;
11228;SDS011;5671;47.936;8.716;2023-09-07T11:48:43;7.93;;;3.30;;
11228;SDS011;5671;47.936;8.716;2023-09-07T11:51:09;8.30;;;3.20;;
11228;SDS011;5671;47.936;8.716;2023-09-07T11:53:36;3.30;;;3.00;;
11228;SDS011;5671;47.936;8.716;2023-09-07T11:56:05;4.73;;;3.00;;
11228;SDS011;5671;47.936;8.716;2023-09-07T11:58:32;5.80;;;3.47;;
11228;SDS011;5671;47.936;8.716;2023-09-07T12:00:58;3.77;;;3.43;;
11228;SDS011;5671;47.936;8.716;2023-09-07T12:03:28;3.97;;;3.17;;
11228;SDS011;5671;47.936;8.716;2023-09-07T12:05:58;6.73;;;3.30;;
11228;SDS011;5671;47.936;8.716;2023-09-07T12:08:30;4.23;;;3.10;;
11228;SDS011;5671;47.936;8.716;2023-09-07T12:10:56;3.83;;;3.30;;
11228;SDS011;5671;47.936;8.716;2023-09-07T12:13:25;3.50;;;3.20;;
11228;SDS011;5671;47.936;8.716;2023-09-07T12:15:51;6.43;;;3.10;;
11228;SDS011;5671;47.936;8.716;2023-09-07T12:18:18;4.97;;;3.33;;
11228;SDS011;5671;47.936;8.716;2023-09-07T12:20:45;6.33;;;3.40;;
11228;SDS011;5671;47.936;8.716;2023-09-07T12:23:12;3.37;;;2.87;;
11228;SDS011;5671;47.936;8.716;2023-09-07T12:25:39;4.33;;;3.27;;
11228;SDS011;5671;47.936;8.716;2023-09-07T12:28:06;3.37;;;2.83;;
11228;SDS011;5671;47.936;8.716;2023-09-07T12:30:34;4.27;;;2.87;;
11228;SDS011;5671;47.936;8.716;2023-09-07T12:33:00;6.57;;;3.30;;
11228;SDS011;5671;47.936;8.716;2023-09-07T12:35:29;3.83;;;3.43;;
11228;SDS011;5671;47.936;8.716;2023-09-07T12:37:56;3.70;;;3.30;;
11228;SDS011;5671;47.936;8.716;2023-09-07T12:40:23;6.77;;;3.30;;
11228;SDS011;5671;47.936;8.716;2023-09-07T12:42:50;4.83;;;3.70;;
11228;SDS011;5671;47.936;8.716;2023-09-07T12:45:17;5.67;;;3.20;;
11228;SDS011;5671;47.936;8.716;2023-09-07T12:47:45;5.70;;;3.63;;
11228;SDS011;5671;47.936;8.716;2023-09-07T12:50:12;8.83;;;3.33;;
11228;SDS011;5671;47.936;8.716;2023-09-07T12:52:40;8.27;;;4.20;;
11228;SDS011;5671;47.936;8.716;2023-09-07T12:55:07;3.63;;;3.33;;
11228;SDS011;5671;47.936;8.716;2023-09-07T12:57:34;10.13;;;3.90;;
11228;SDS011;5671;47.936;8.716;2023-09-07T13:00:02;5.00;;;3.27;;
11228;SDS011;5671;47.936;8.716;2023-09-07T13:02:31;4.90;;;3.93;;
11228;SDS011;5671;47.936;8.716;2023-09-07T13:04:59;6.33;;;3.80;;
11228;SDS011;5671;47.936;8.716;2023-09-07T13:07:26;15.00;;;4.20;;
11228;SDS011;5671;47.936;8.716;2023-09-07T13:09:52;9.20;;;3.70;;
11228;SDS011;5671;47.936;8.716;2023-09-07T13:12:22;7.73;;;3.33;;
11228;SDS011;5671;47.936;8.716;2023-09-07T13:14:49;8.80;;;3.60;;
11228;SDS011;5671;47.936;8.716;2023-09-07T13:17:16;3.87;;;3.50;;
11228;SDS011;5671;47.936;8.716;2023-09-07T13:19:43;3.67;;;3.37;;
11228;SDS011;5671;47.936;8.716;2023-09-07T13:22:11;4.60;;;3.50;;
11228;SDS011;5671;47.936;8.716;2023-09-07T13:24:38;5.63;;;3.60;;
11228;SDS011;5671;47.936;8.716;2023-09-07T13:27:05;3.10;;;2.90;;
11228;SDS011;5671;47.936;8.716;2023-09-07T13:29:33;9.50;;;3.67;;
11228;SDS011;5671;47.936;8.716;2023-09-07T13:32:00;4.87;;;3.50;;
11228;SDS011;5671;47.936;8.716;2023-09-07T13:34:27;3.50;;;2.77;;
11228;SDS011;5671;47.936;8.716;2023-09-07T13:36:54;6.13;;;3.20;;
11228;SDS011;5671;47.936;8.716;2023-09-07T13:39:23;3.93;;;3.47;;
11228;SDS011;5671;47.936;8.716;2023-09-07T13:41:50;4.20;;;3.10;;
11228;SDS011;5671;47.936;8.716;2023-09-07T13:44:17;3.73;;;3.20;;
11228;SDS011;5671;47.936;8.716;2023-09-07T13:46:44;7.60;;;3.47;;
11228;SDS011;5671;47.936;8.716;2023-09-07T13:49:11;3.90;;;3.47;;
11228;SDS011;5671;47.936;8.716;2023-09-07T13:51:39;5.97;;;3.27;;
11228;SDS011;5671;47.936;8.716;2023-09-07T13:54:06;4.67;;;3.57;;
11228;SDS011;5671;47.936;8.716;2023-09-07T13:56:35;4.10;;;3.53;;
11228;SDS011;5671;47.936;8.716;2023-09-07T13:59:02;3.43;;;3.13;;
11228;SDS011;5671;47.936;8.716;2023-09-07T14:01:29;5.40;;;3.60;;
11228;SDS011;5671;47.936;8.716;2023-09-07T14:03:56;4.60;;;3.23;;
11228;SDS011;5671;47.936;8.716;2023-09-07T14:06:23;6.80;;;3.27;;
11228;SDS011;5671;47.936;8.716;2023-09-07T14:08:50;6.53;;;3.30;;
11228;SDS011;5671;47.936;8.716;2023-09-07T14:11:17;8.43;;;3.30;;
11228;SDS011;5671;47.936;8.716;2023-09-07T14:13:46;7.13;;;3.10;;
11228;SDS011;5671;47.936;8.716;2023-09-07T14:16:16;9.23;;;3.60;;
11228;SDS011;5671;47.936;8.716;2023-09-07T14:18:43;5.73;;;3.20;;
11228;SDS011;5671;47.936;8.716;2023-09-07T14:21:10;6.30;;;3.53;;
11228;SDS011;5671;47.936;8.716;2023-09-07T14:23:37;5.27;;;3.70;;
11228;SDS011;5671;47.936;8.716;2023-09-07T14:26:04;4.77;;;3.00;;
11228;SDS011;5671;47.936;8.716;2023-09-07T14:28:30;6.37;;;3.40;;
11228;SDS011;5671;47.936;8.716;2023-09-07T14:30:59;3.63;;;3.27;;
11228;SDS011;5671;47.936;8.716;2023-09-07T14:33:28;6.80;;;3.07;;
11228;SDS011;5671;47.936;8.716;2023-09-07T14:35:55;7.57;;;3.17;;
11228;SDS011;5671;47.936;8.716;2023-09-07T14:38:22;7.33;;;3.73;;
11228;SDS011;5671;47.936;8.716;2023-09-07T14:40:51;4.07;;;3.30;;
11228;SDS011;5671;47.936;8.716;2023-09-07T14:43:20;6.03;;;3.63;;
11228;SDS011;5671;47.936;8.716;2023-09-07T14:45:47;7.73;;;3.43;;
11228;SDS011;5671;47.936;8.716;2023-09-07T14:48:15;5.20;;;3.50;;
11228;SDS011;5671;47.936;8.716;2023-09-07T14:50:42;4.17;;;3.50;;
11228;SDS011;5671;47.936;8.716;2023-09-07T14:53:09;6.13;;;3.50;;
11228;SDS011;5671;47.936;8.716;2023-09-07T14:55:35;5.27;;;3.10;;
11228;SDS011;5671;47.936;8.716;2023-09-07T14:58:03;3.50;;;3.20;;
11228;SDS011;5671;47.936;8.716;2023-09-07T15:00:32;5.13;;;3.03;;
11228;SDS011;5671;47.936;8.716;2023-09-07T15:02:59;5.10;;;3.00;;